logo dgac
Sábado 24 de Febrero del 2018
Buscar por aerodromo o helipuerto
Ingrese nombre de aeródromo, localidad o designador OACI:
METAR del 24-02-2018 a las 16:00 UTC
METAR SCRM 241600Z 31014KT 3000 BR OVC003 03/03 Q0986
Viento: dirección 310 grados, velocidad 14 nudos
Visibilidad: 3000 metros
Neblina
Nubes: Cubierto a 300 pies sobre el nivel del aeródromo
Temperatura: 3 °C
Rocío: 3 °C
Humedad_relativa: 100%
Presión: 986 hPa
METAR del 24-02-2018 a las 15:00 UTC
METAR SCRM 241500Z 32018KT 3000 BR OVC006 03/03 Q0986
Viento: dirección 320 grados, velocidad 18 nudos
Visibilidad: 3000 metros
Neblina
Nubes: Cubierto a 600 pies sobre el nivel del aeródromo
Temperatura: 3 °C
Rocío: 3 °C
Humedad_relativa: 100%
Presión: 986 hPa
METAR del 24-02-2018 a las 14:00 UTC
METAR SCRM 241400Z 31017KT 4500 BR OVC004 03/03 Q0986
Viento: dirección 310 grados, velocidad 17 nudos
Visibilidad: 4500 metros
Neblina
Nubes: Cubierto a 400 pies sobre el nivel del aeródromo
Temperatura: 3 °C
Rocío: 3 °C
Humedad_relativa: 100%
Presión: 986 hPa
METAR del 24-02-2018 a las 13:00 UTC
METAR SCRM 241300Z 32018KT 5000 BR OVC007 03/03 Q0986
Viento: dirección 320 grados, velocidad 18 nudos
Visibilidad: 5000 metros
Neblina
Nubes: Cubierto a 700 pies sobre el nivel del aeródromo
Temperatura: 3 °C
Rocío: 3 °C
Humedad_relativa: 100%
Presión: 986 hPa
METAR del 24-02-2018 a las 13:00 UTC
METAR SCRM 241300Z 32018KT 5000 BR OVC007 03/03 Q0986
Viento: dirección 320 grados, velocidad 18 nudos
Visibilidad: 5000 metros
Neblina
Nubes: Cubierto a 700 pies sobre el nivel del aeródromo
Temperatura: 3 °C
Rocío: 3 °C
Humedad_relativa: 100%
Presión: 986 hPa
METAR del 24-02-2018 a las 12:00 UTC
METAR SCRM 241200Z 32018KT 5000 BR OVC005 03/03 Q0986
Viento: dirección 320 grados, velocidad 18 nudos
Visibilidad: 5000 metros
Neblina
Nubes: Cubierto a 500 pies sobre el nivel del aeródromo
Temperatura: 3 °C
Rocío: 3 °C
Humedad_relativa: 100%
Presión: 986 hPa
METAR del 24-02-2018 a las 12:00 UTC
METAR SCRM 241200Z 32018KT 5000 BR OVC005 03/03 Q0986
Viento: dirección 320 grados, velocidad 18 nudos
Visibilidad: 5000 metros
Neblina
Nubes: Cubierto a 500 pies sobre el nivel del aeródromo
Temperatura: 3 °C
Rocío: 3 °C
Humedad_relativa: 100%
Presión: 986 hPa
METAR del 24-02-2018 a las 11:00 UTC
METAR SCRM 241100Z 33021KT 3000 BR OVC003 03/03 Q0986
Viento: dirección 330 grados, velocidad 21 nudos
Visibilidad: 3000 metros
Neblina
Nubes: Cubierto a 300 pies sobre el nivel del aeródromo
Temperatura: 3 °C
Rocío: 3 °C
Humedad_relativa: 100%
Presión: 986 hPa
METAR del 24-02-2018 a las 10:00 UTC
METAR SCRM 241000Z 33022KT 1000 -DZ FG VV002 04/04 Q0986
Viento: dirección 330 grados, velocidad 22 nudos
Visibilidad: 1000 metros
Débil LLovizna
Niebla
Visib_vertical: Cielo oscurecido, : 200 pies de visibilidad vertical
Temperatura: 4 °C
Rocío: 4 °C
Humedad_relativa: 100%
Presión: 986 hPa
METAR del 24-02-2018 a las 09:00 UTC
METAR SCRM 240900Z 32020KT 0200 -DZ FG VV001 04/04 Q0986
Viento: dirección 320 grados, velocidad 20 nudos
Visibilidad: 200 metros
Débil LLovizna
Niebla
Visib_vertical: Cielo oscurecido, : 100 pies de visibilidad vertical
Temperatura: 4 °C
Rocío: 4 °C
Humedad_relativa: 100%
Presión: 986 hPa